createdAt,value
2019-02-14T00:00:24.086Z,1028.51
2019-02-14T00:01:24.100Z,1028.52
2019-02-14T00:02:24.115Z,1028.50
2019-02-14T00:03:24.131Z,1028.49
2019-02-14T00:04:24.146Z,1028.53
2019-02-14T00:05:24.164Z,1028.54
2019-02-14T00:06:24.180Z,1028.56
2019-02-14T00:07:24.191Z,1028.58
2019-02-14T00:08:24.204Z,1028.60
2019-02-14T00:09:24.222Z,1028.54
2019-02-14T00:10:24.235Z,1028.59
2019-02-14T00:11:24.250Z,1028.55
2019-02-14T00:12:24.265Z,1028.58
2019-02-14T00:13:24.281Z,1028.57
2019-02-14T00:14:24.294Z,1028.59
2019-02-14T00:15:24.312Z,1028.61
2019-02-14T00:16:24.327Z,1028.62
2019-02-14T00:17:24.340Z,1028.57
2019-02-14T00:18:24.357Z,1028.60
2019-02-14T00:19:24.370Z,1028.59
2019-02-14T00:20:24.387Z,1028.59
2019-02-14T00:21:24.400Z,1028.59
2019-02-14T00:22:24.420Z,1028.62
2019-02-14T00:23:24.430Z,1028.62
2019-02-14T00:24:24.445Z,1028.59
2019-02-14T00:25:24.459Z,1028.57
2019-02-14T00:26:24.474Z,1028.59
2019-02-14T00:27:24.488Z,1028.57
2019-02-14T00:28:24.504Z,1028.58
2019-02-14T00:29:24.516Z,1028.58
2019-02-14T00:30:24.537Z,1028.63
2019-02-14T00:31:24.549Z,1028.60
2019-02-14T00:32:24.565Z,1028.65
2019-02-14T00:33:24.579Z,1028.67
2019-02-14T00:34:26.292Z,1028.67
2019-02-14T00:35:25.302Z,1028.69
2019-02-14T00:36:24.622Z,1028.67
2019-02-14T00:37:24.634Z,1028.72
2019-02-14T00:38:24.651Z,1028.68
2019-02-14T00:39:24.664Z,1028.75
2019-02-14T00:40:24.683Z,1028.77
2019-02-14T00:41:24.700Z,1028.79
2019-02-14T00:42:24.715Z,1028.77
2019-02-14T00:43:24.729Z,1028.77
2019-02-14T00:44:24.740Z,1028.78
2019-02-14T00:45:24.760Z,1028.76
2019-02-14T00:46:24.769Z,1028.82
2019-02-14T00:47:24.785Z,1028.75
2019-02-14T00:48:24.801Z,1028.76
2019-02-14T00:49:24.815Z,1028.79
2019-02-14T00:50:24.834Z,1028.76
2019-02-14T00:51:24.846Z,1028.73
2019-02-14T00:52:24.907Z,1028.76
2019-02-14T00:53:24.875Z,1028.77
2019-02-14T00:54:24.919Z,1028.77
2019-02-14T00:55:24.905Z,1028.72
2019-02-14T00:56:24.921Z,1028.76
2019-02-14T00:57:24.934Z,1028.76
2019-02-14T00:58:24.949Z,1028.76
2019-02-14T00:59:24.965Z,1028.77
2019-02-14T01:00:24.977Z,1028.75
2019-02-14T01:01:24.993Z,1028.78
2019-02-14T01:02:25.009Z,1028.78
2019-02-14T01:03:25.025Z,1028.77
2019-02-14T01:04:25.040Z,1028.82
2019-02-14T01:05:33.142Z,1028.81
2019-02-14T01:06:25.066Z,1028.84
2019-02-14T01:07:25.082Z,1028.84
2019-02-14T01:08:25.099Z,1028.82
2019-02-14T01:09:25.115Z,1028.78
2019-02-14T01:10:25.128Z,1028.76
2019-02-14T01:11:25.144Z,1028.73
2019-02-14T01:12:25.158Z,1028.70
2019-02-14T01:13:25.175Z,1028.68
2019-02-14T01:14:25.188Z,1028.67
2019-02-14T01:15:25.202Z,1028.71
2019-02-14T01:16:25.218Z,1028.62
2019-02-14T01:17:25.233Z,1028.68
2019-02-14T01:18:25.250Z,1028.73
2019-02-14T01:19:25.263Z,1028.74
2019-02-14T01:20:25.283Z,1028.74
2019-02-14T01:21:25.294Z,1028.74
2019-02-14T01:22:25.305Z,1028.80
2019-02-14T01:23:25.324Z,1028.72
2019-02-14T01:24:25.341Z,1028.75
2019-02-14T01:25:25.353Z,1028.77
2019-02-14T01:26:25.370Z,1028.80
2019-02-14T01:27:25.383Z,1028.74
2019-02-14T01:28:25.394Z,1028.72
2019-02-14T01:29:25.413Z,1028.77
2019-02-14T01:30:25.427Z,1028.75
2019-02-14T01:31:25.441Z,1028.80
2019-02-14T01:32:25.460Z,1028.78
2019-02-14T01:33:25.471Z,1028.71
2019-02-14T01:34:25.487Z,1028.72
2019-02-14T01:35:25.500Z,1028.72
2019-02-14T01:36:25.516Z,1028.70
2019-02-14T01:37:25.531Z,1028.71
2019-02-14T01:38:25.546Z,1028.65
2019-02-14T01:39:25.562Z,1028.68
2019-02-14T01:40:25.577Z,1028.68
2019-02-14T01:41:25.590Z,1028.65
2019-02-14T01:42:25.607Z,1028.64
2019-02-14T01:43:25.620Z,1028.64
2019-02-14T01:44:25.635Z,1028.63
2019-02-14T01:45:25.651Z,1028.61
2019-02-14T01:46:25.666Z,1028.63
2019-02-14T01:47:25.679Z,1028.65
2019-02-14T01:48:25.695Z,1028.63
2019-02-14T01:49:25.758Z,1028.62
2019-02-14T01:50:25.788Z,1028.63
2019-02-14T01:51:25.790Z,1028.64
2019-02-14T01:52:25.810Z,1028.61
2019-02-14T01:53:25.811Z,1028.61
2019-02-14T01:54:25.810Z,1028.56
2019-02-14T01:55:25.870Z,1028.55
2019-02-14T01:56:25.866Z,1028.53
2019-02-14T01:57:25.873Z,1028.54
2019-02-14T01:58:25.860Z,1028.53
2019-02-14T01:59:25.870Z,1028.52
2019-02-14T02:00:25.874Z,1028.48
2019-02-14T02:01:25.889Z,1028.47
2019-02-14T02:02:25.903Z,1028.51
2019-02-14T02:03:25.920Z,1028.52
2019-02-14T02:04:25.934Z,1028.55
2019-02-14T02:05:25.948Z,1028.54
2019-02-14T02:06:25.965Z,1028.59
2019-02-14T02:07:25.978Z,1028.59
2019-02-14T02:08:25.995Z,1028.56
2019-02-14T02:09:26.010Z,1028.62
2019-02-14T02:10:26.024Z,1028.57
2019-02-14T02:11:26.041Z,1028.57
2019-02-14T02:12:26.054Z,1028.64
2019-02-14T02:13:26.072Z,1028.62
2019-02-14T02:14:26.084Z,1028.63
2019-02-14T02:15:26.101Z,1028.62
2019-02-14T02:16:26.115Z,1028.62
2019-02-14T02:17:26.129Z,1028.69
2019-02-14T02:18:26.143Z,1028.66
2019-02-14T02:19:26.160Z,1028.66
2019-02-14T02:20:33.259Z,1028.67
2019-02-14T02:21:26.189Z,1028.66
2019-02-14T02:22:26.205Z,1028.72
2019-02-14T02:23:26.219Z,1028.75
2019-02-14T02:24:26.234Z,1028.71
2019-02-14T02:25:26.313Z,1028.71
2019-02-14T02:26:26.267Z,1028.71
2019-02-14T02:27:26.291Z,1028.68
2019-02-14T02:28:26.296Z,1028.66
2019-02-14T02:29:26.313Z,1028.63
2019-02-14T02:30:26.329Z,1028.59
2019-02-14T02:31:26.342Z,1028.61
2019-02-14T02:32:26.356Z,1028.62
2019-02-14T02:33:26.371Z,1028.61
2019-02-14T02:34:26.385Z,1028.64
2019-02-14T02:35:26.400Z,1028.61
2019-02-14T02:36:26.423Z,1028.61
2019-02-14T02:37:26.433Z,1028.66
2019-02-14T02:38:26.445Z,1028.62
2019-02-14T02:39:26.462Z,1028.69
2019-02-14T02:40:26.478Z,1028.64
2019-02-14T02:41:26.497Z,1028.67
2019-02-14T02:42:26.506Z,1028.67
2019-02-14T02:43:26.528Z,1028.59
2019-02-14T02:44:26.537Z,1028.63
2019-02-14T02:45:26.551Z,1028.62
2019-02-14T02:46:26.567Z,1028.63
2019-02-14T02:47:26.587Z,1028.63
2019-02-14T02:48:26.598Z,1028.67
2019-02-14T02:49:26.613Z,1028.71
2019-02-14T02:50:26.633Z,1028.70
2019-02-14T02:51:26.642Z,1028.79
2019-02-14T02:52:26.662Z,1028.78
2019-02-14T02:53:26.676Z,1028.85
2019-02-14T02:54:26.687Z,1028.85
2019-02-14T02:55:26.702Z,1028.86
2019-02-14T02:56:26.718Z,1028.93
2019-02-14T02:57:26.734Z,1028.92
2019-02-14T02:58:26.746Z,1028.92
2019-02-14T02:59:26.762Z,1028.88
2019-02-14T03:00:26.780Z,1028.87
2019-02-14T03:01:26.802Z,1028.90
2019-02-14T03:02:26.811Z,1028.89
2019-02-14T03:03:26.828Z,1028.91
2019-02-14T03:04:26.839Z,1028.91
2019-02-14T03:05:26.853Z,1028.90
2019-02-14T03:06:26.867Z,1028.90
2019-02-14T03:07:26.883Z,1028.90
2019-02-14T03:08:26.898Z,1028.90
2019-02-14T03:09:26.913Z,1028.89
2019-02-14T03:10:26.927Z,1028.90
2019-02-14T03:11:26.965Z,1028.90
2019-02-14T03:12:26.960Z,1028.91
2019-02-14T03:13:26.979Z,1028.90
2019-02-14T03:14:26.985Z,1028.89
2019-02-14T03:15:27.002Z,1028.94
2019-02-14T03:16:27.018Z,1028.98
2019-02-14T03:17:27.035Z,1028.97
2019-02-14T03:18:27.048Z,1029.00
2019-02-14T03:19:27.067Z,1029.02
2019-02-14T03:20:27.078Z,1028.99
2019-02-14T03:21:27.098Z,1029.01
2019-02-14T03:22:27.107Z,1029.00
2019-02-14T03:23:27.124Z,1029.01
2019-02-14T03:24:27.138Z,1028.97
2019-02-14T03:25:27.155Z,1029.04
2019-02-14T03:26:27.173Z,1028.98
2019-02-14T03:27:27.185Z,1028.99
2019-02-14T03:28:27.200Z,1029.04
2019-02-14T03:29:27.214Z,1029.11
2019-02-14T03:30:27.229Z,1029.11
2019-02-14T03:31:27.244Z,1029.12
2019-02-14T03:32:27.264Z,1029.13
2019-02-14T03:33:27.277Z,1029.13
2019-02-14T03:34:27.287Z,1029.13
2019-02-14T03:35:27.306Z,1029.14
2019-02-14T03:36:27.323Z,1029.08
2019-02-14T03:37:27.340Z,1029.12
2019-02-14T03:38:27.350Z,1029.13
2019-02-14T03:39:27.365Z,1029.16
2019-02-14T03:40:27.382Z,1029.14
2019-02-14T03:41:27.398Z,1029.17
2019-02-14T03:42:27.412Z,1029.17
2019-02-14T03:43:27.425Z,1029.18
2019-02-14T03:44:27.441Z,1029.17
2019-02-14T03:45:27.457Z,1029.14
2019-02-14T03:46:27.470Z,1029.14
2019-02-14T03:47:27.485Z,1029.12
2019-02-14T03:48:27.499Z,1029.14
2019-02-14T03:49:27.519Z,1029.10
2019-02-14T03:50:27.530Z,1029.08
2019-02-14T03:51:27.545Z,1029.12
2019-02-14T03:52:27.573Z,1029.13
2019-02-14T03:53:27.663Z,1029.09
2019-02-14T03:54:27.662Z,1029.03
2019-02-14T03:55:27.646Z,1029.10
2019-02-14T03:56:27.651Z,1029.08
2019-02-14T03:57:27.715Z,1029.08
2019-02-14T03:58:27.710Z,1029.10
2019-02-14T03:59:27.714Z,1029.11
2019-02-14T04:00:27.720Z,1029.07
2019-02-14T04:01:27.715Z,1029.07
2019-02-14T04:02:27.711Z,1029.06
2019-02-14T04:03:27.725Z,1029.11
2019-02-14T04:04:27.742Z,1029.12
2019-02-14T04:05:27.758Z,1029.18
2019-02-14T04:06:27.847Z,1029.19
2019-02-14T04:07:27.787Z,1029.20
2019-02-14T04:08:27.802Z,1029.19
2019-02-14T04:09:27.816Z,1029.15
2019-02-14T04:10:27.834Z,1029.13
2019-02-14T04:11:27.847Z,1029.11
2019-02-14T04:12:27.866Z,1029.15
2019-02-14T04:13:27.878Z,1029.15
2019-02-14T04:14:27.891Z,1029.18
2019-02-14T04:15:27.907Z,1029.21
2019-02-14T04:16:27.920Z,1029.21
2019-02-14T04:17:27.937Z,1029.20
2019-02-14T04:18:27.950Z,1029.21
2019-02-14T04:19:27.968Z,1029.23
2019-02-14T04:20:27.980Z,1029.25
2019-02-14T04:21:27.996Z,1029.29
2019-02-14T04:22:28.010Z,1029.25
2019-02-14T04:23:28.027Z,1029.28
2019-02-14T04:24:28.041Z,1029.32
2019-02-14T04:25:28.062Z,1029.26
2019-02-14T04:26:28.071Z,1029.32
2019-02-14T04:27:28.084Z,1029.29
2019-02-14T04:28:28.102Z,1029.33
2019-02-14T04:29:28.115Z,1029.32
2019-02-14T04:30:28.128Z,1029.29
2019-02-14T04:31:28.145Z,1029.27
2019-02-14T04:32:28.164Z,1029.30
2019-02-14T04:33:28.178Z,1029.26
2019-02-14T04:34:28.189Z,1029.21
2019-02-14T04:35:28.208Z,1029.16
2019-02-14T04:36:35.601Z,1029.12
2019-02-14T04:37:28.237Z,1029.12
2019-02-14T04:38:28.248Z,1029.12
2019-02-14T04:39:28.264Z,1029.11
2019-02-14T04:40:33.476Z,1029.14
2019-02-14T04:41:28.291Z,1029.16
2019-02-14T04:42:28.310Z,1029.20
2019-02-14T04:43:28.325Z,1029.24
2019-02-14T04:44:28.338Z,1029.25
2019-02-14T04:45:28.353Z,1029.25
2019-02-14T04:46:28.367Z,1029.27
2019-02-14T04:47:28.383Z,1029.26
2019-02-14T04:48:28.398Z,1029.31
2019-02-14T04:49:28.413Z,1029.35
2019-02-14T04:50:28.428Z,1029.34
2019-02-14T04:51:28.444Z,1029.32
2019-02-14T04:52:28.457Z,1029.29
2019-02-14T04:53:28.473Z,1029.29
2019-02-14T04:54:28.487Z,1029.30
2019-02-14T04:55:28.505Z,1029.30
2019-02-14T04:56:28.516Z,1029.35
2019-02-14T04:57:28.535Z,1029.32
2019-02-14T04:58:28.546Z,1029.34
2019-02-14T04:59:28.560Z,1029.32
2019-02-14T05:00:28.579Z,1029.29
2019-02-14T05:01:28.592Z,1029.22
2019-02-14T05:02:28.606Z,1029.23
2019-02-14T05:03:28.624Z,1029.17
2019-02-14T05:04:28.638Z,1029.19
2019-02-14T05:05:28.652Z,1029.21
2019-02-14T05:06:28.667Z,1029.22
2019-02-14T05:07:28.683Z,1029.20
2019-02-14T05:08:28.697Z,1029.24
2019-02-14T05:09:28.714Z,1029.29
2019-02-14T05:10:28.731Z,1029.32
2019-02-14T05:11:28.741Z,1029.34
2019-02-14T05:12:28.759Z,1029.40
2019-02-14T05:13:28.772Z,1029.43
2019-02-14T05:14:28.790Z,1029.44
2019-02-14T05:15:28.804Z,1029.44
2019-02-14T05:16:28.819Z,1029.46
2019-02-14T05:17:28.833Z,1029.46
2019-02-14T05:18:28.847Z,1029.51
2019-02-14T05:19:28.863Z,1029.53
2019-02-14T05:20:28.878Z,1029.57
2019-02-14T05:21:28.894Z,1029.56
2019-02-14T05:22:28.907Z,1029.56
2019-02-14T05:23:28.923Z,1029.60
2019-02-14T05:24:28.939Z,1029.58
2019-02-14T05:25:29.000Z,1029.60
2019-02-14T05:26:28.969Z,1029.62
2019-02-14T05:27:28.986Z,1029.63
2019-02-14T05:28:29.000Z,1029.58
2019-02-14T05:29:29.013Z,1029.60
2019-02-14T05:30:29.029Z,1029.58
2019-02-14T05:31:29.044Z,1029.59
2019-02-14T05:32:29.061Z,1029.57
2019-02-14T05:33:29.073Z,1029.56
2019-02-14T05:34:29.090Z,1029.55
2019-02-14T05:35:29.110Z,1029.53
2019-02-14T05:36:29.119Z,1029.57
2019-02-14T05:37:29.137Z,1029.62
2019-02-14T05:38:29.151Z,1029.59
2019-02-14T05:39:29.164Z,1029.61
2019-02-14T05:40:29.179Z,1029.56
2019-02-14T05:41:29.195Z,1029.59
2019-02-14T05:42:29.211Z,1029.49
2019-02-14T05:43:29.228Z,1029.50
2019-02-14T05:44:29.242Z,1029.47
2019-02-14T05:45:29.255Z,1029.48
2019-02-14T05:46:29.271Z,1029.43
2019-02-14T05:47:29.287Z,1029.43
2019-02-14T05:48:29.301Z,1029.41
2019-02-14T05:49:29.315Z,1029.42
2019-02-14T05:50:29.329Z,1029.45
2019-02-14T05:51:29.344Z,1029.41
2019-02-14T05:52:29.362Z,1029.40
2019-02-14T05:53:29.376Z,1029.45
2019-02-14T05:54:29.391Z,1029.52
2019-02-14T05:55:29.414Z,1029.51
2019-02-14T05:56:29.487Z,1029.56
2019-02-14T05:57:29.496Z,1029.58
2019-02-14T05:58:29.500Z,1029.59
2019-02-14T05:59:29.498Z,1029.59
2019-02-14T06:00:29.516Z,1029.59
2019-02-14T06:01:29.561Z,1029.57
2019-02-14T06:02:29.551Z,1029.53
2019-02-14T06:03:29.562Z,1029.52
2019-02-14T06:04:29.554Z,1029.56
2019-02-14T06:05:29.559Z,1029.51
2019-02-14T06:06:29.574Z,1029.53
2019-02-14T06:07:29.586Z,1029.51
2019-02-14T06:08:29.604Z,1029.52
2019-02-14T06:09:29.618Z,1029.49
2019-02-14T06:10:29.634Z,1029.51
2019-02-14T06:11:29.650Z,1029.48
2019-02-14T06:12:29.665Z,1029.48
2019-02-14T06:13:29.679Z,1029.51
2019-02-14T06:14:29.695Z,1029.50
2019-02-14T06:15:29.709Z,1029.47
2019-02-14T06:16:29.725Z,1029.57
2019-02-14T06:17:29.742Z,1029.58
2019-02-14T06:18:29.759Z,1029.62
2019-02-14T06:19:29.770Z,1029.63
2019-02-14T06:20:29.799Z,1029.69
2019-02-14T06:21:29.804Z,1029.70
2019-02-14T06:22:29.815Z,1029.70
2019-02-14T06:23:30.178Z,1029.74
2019-02-14T06:24:29.846Z,1029.75
2019-02-14T06:25:29.869Z,1029.75
2019-02-14T06:26:29.877Z,1029.68
2019-02-14T06:27:29.892Z,1029.73
2019-02-14T06:28:29.906Z,1029.70
2019-02-14T06:29:29.923Z,1029.68
2019-02-14T06:30:29.985Z,1029.65
2019-02-14T06:31:29.953Z,1029.61
2019-02-14T06:32:29.970Z,1029.68
2019-02-14T06:33:29.983Z,1029.73
2019-02-14T06:34:29.998Z,1029.77
2019-02-14T06:35:30.014Z,1029.77
2019-02-14T06:36:30.030Z,1029.81
2019-02-14T06:37:30.044Z,1029.87
2019-02-14T06:38:30.059Z,1029.91
2019-02-14T06:39:30.073Z,1029.92
2019-02-14T06:40:30.090Z,1029.93
2019-02-14T06:41:30.104Z,1029.96
2019-02-14T06:42:30.120Z,1030.02
2019-02-14T06:43:30.134Z,1030.04
2019-02-14T06:44:30.149Z,1030.01
2019-02-14T06:45:30.166Z,1029.99
2019-02-14T06:46:30.179Z,1029.92
2019-02-14T06:47:30.197Z,1029.89
2019-02-14T06:48:30.209Z,1029.84
2019-02-14T06:49:30.224Z,1029.79
2019-02-14T06:50:34.719Z,1029.75
2019-02-14T06:51:30.257Z,1029.80
2019-02-14T06:52:30.271Z,1029.79
2019-02-14T06:53:30.293Z,1029.78
2019-02-14T06:54:30.301Z,1029.79
2019-02-14T06:55:30.317Z,1029.81
2019-02-14T06:56:30.332Z,1029.83
2019-02-14T06:57:30.350Z,1029.88
2019-02-14T06:58:30.363Z,1029.87
2019-02-14T06:59:30.380Z,1029.85
2019-02-14T07:00:30.395Z,1029.82
2019-02-14T07:01:30.411Z,1029.82
2019-02-14T07:02:30.424Z,1029.84
2019-02-14T07:03:30.439Z,1029.87
2019-02-14T07:04:30.455Z,1029.89
2019-02-14T07:05:30.470Z,1029.96
2019-02-14T07:06:30.488Z,1029.99
2019-02-14T07:07:30.498Z,1030.07
2019-02-14T07:08:30.516Z,1030.07
2019-02-14T07:09:30.534Z,1030.13
2019-02-14T07:10:30.547Z,1030.11
2019-02-14T07:11:30.564Z,1030.13
2019-02-14T07:12:30.578Z,1030.13
2019-02-14T07:13:30.594Z,1030.14
2019-02-14T07:14:30.608Z,1030.13
2019-02-14T07:15:30.624Z,1030.17
2019-02-14T07:16:30.639Z,1030.23
2019-02-14T07:17:30.656Z,1030.31
2019-02-14T07:18:30.670Z,1030.34
2019-02-14T07:19:30.686Z,1030.31
2019-02-14T07:20:30.703Z,1030.32
2019-02-14T07:21:30.719Z,1030.32
2019-02-14T07:22:30.733Z,1030.34
2019-02-14T07:23:30.749Z,1030.37
2019-02-14T07:24:30.764Z,1030.33
2019-02-14T07:25:30.785Z,1030.38
2019-02-14T07:26:30.795Z,1030.39
2019-02-14T07:27:30.837Z,1030.44
2019-02-14T07:28:30.825Z,1030.39
2019-02-14T07:29:30.842Z,1030.39
2019-02-14T07:30:30.857Z,1030.36
2019-02-14T07:31:30.873Z,1030.37
2019-02-14T07:32:30.888Z,1030.39
2019-02-14T07:33:30.905Z,1030.41
2019-02-14T07:34:30.919Z,1030.48
2019-02-14T07:35:30.935Z,1030.50
2019-02-14T07:36:30.949Z,1030.46
2019-02-14T07:37:30.970Z,1030.47
2019-02-14T07:38:30.982Z,1030.51
2019-02-14T07:39:30.999Z,1030.52
2019-02-14T07:40:31.014Z,1030.52
2019-02-14T07:41:31.030Z,1030.47
2019-02-14T07:42:31.047Z,1030.44
2019-02-14T07:43:31.062Z,1030.38
2019-02-14T07:44:31.075Z,1030.40
2019-02-14T07:45:31.093Z,1030.38
2019-02-14T07:46:31.111Z,1030.35
2019-02-14T07:47:31.123Z,1030.36
2019-02-14T07:48:31.139Z,1030.37
2019-02-14T07:49:31.158Z,1030.41
2019-02-14T07:50:31.182Z,1030.38
2019-02-14T07:51:31.188Z,1030.38
2019-02-14T07:52:31.203Z,1030.35
2019-02-14T07:53:31.218Z,1030.30
2019-02-14T07:54:31.234Z,1030.30
2019-02-14T07:55:31.254Z,1030.34
2019-02-14T07:56:31.345Z,1030.37
2019-02-14T07:57:31.349Z,1030.40
2019-02-14T07:58:31.354Z,1030.43
2019-02-14T07:59:31.348Z,1030.43
2019-02-14T08:00:31.383Z,1030.40
2019-02-14T08:01:31.399Z,1030.42
2019-02-14T08:02:31.408Z,1030.39
2019-02-14T08:03:31.411Z,1030.40
2019-02-14T08:04:31.434Z,1030.40
2019-02-14T08:05:31.416Z,1030.39
2019-02-14T08:06:31.425Z,1030.37
2019-02-14T08:07:35.961Z,1030.36
2019-02-14T08:08:31.459Z,1030.38
2019-02-14T08:09:31.474Z,1030.37
2019-02-14T08:10:31.488Z,1030.39
2019-02-14T08:11:31.506Z,1030.36
2019-02-14T08:12:31.530Z,1030.38
2019-02-14T08:13:31.540Z,1030.38
2019-02-14T08:14:31.551Z,1030.37
2019-02-14T08:15:31.571Z,1030.34
2019-02-14T08:16:31.585Z,1030.30
2019-02-14T08:17:31.602Z,1030.27
2019-02-14T08:18:31.618Z,1030.25
2019-02-14T08:19:31.639Z,1030.25
2019-02-14T08:20:31.651Z,1030.34
2019-02-14T08:21:31.669Z,1030.31
2019-02-14T08:22:31.682Z,1030.35
2019-02-14T08:23:31.702Z,1030.37
2019-02-14T08:24:31.718Z,1030.37
2019-02-14T08:25:31.731Z,1030.39
2019-02-14T08:26:31.750Z,1030.34
2019-02-14T08:27:31.771Z,1030.35
2019-02-14T08:28:31.782Z,1030.35
2019-02-14T08:29:31.798Z,1030.30
2019-02-14T08:30:31.813Z,1030.26
2019-02-14T08:31:31.831Z,1030.29
2019-02-14T08:32:31.850Z,1030.27
2019-02-14T08:33:31.865Z,1030.18
2019-02-14T08:34:31.880Z,1030.19
2019-02-14T08:35:31.901Z,1030.20
2019-02-14T08:36:31.914Z,1030.14
2019-02-14T08:37:31.933Z,1030.17
2019-02-14T08:38:31.946Z,1030.12
2019-02-14T08:39:31.965Z,1030.14
2019-02-14T08:40:31.981Z,1030.13
2019-02-14T08:41:32.000Z,1030.14
2019-02-14T08:42:32.015Z,1030.13
2019-02-14T08:43:32.033Z,1030.15
2019-02-14T08:44:32.048Z,1030.18
2019-02-14T08:45:32.065Z,1030.15
2019-02-14T08:46:32.082Z,1030.13
2019-02-14T08:47:32.100Z,1030.13
2019-02-14T08:48:32.120Z,1030.11
2019-02-14T08:49:32.135Z,1030.11
2019-02-14T08:50:32.148Z,1030.11
2019-02-14T08:51:32.639Z,1030.13
2019-02-14T08:52:32.185Z,1030.12
2019-02-14T08:53:32.202Z,1030.12
2019-02-14T08:54:32.219Z,1030.17
2019-02-14T08:55:32.241Z,1030.16
2019-02-14T08:56:32.255Z,1030.19
2019-02-14T08:57:32.271Z,1030.15
2019-02-14T08:58:32.285Z,1030.15
2019-02-14T08:59:32.304Z,1030.17
2019-02-14T09:00:32.329Z,1030.12
2019-02-14T09:01:32.344Z,1030.08
2019-02-14T09:02:32.359Z,1030.09
2019-02-14T09:03:32.375Z,1030.06
2019-02-14T09:04:32.392Z,1030.06
2019-02-14T09:05:32.409Z,1030.07
2019-02-14T09:06:32.427Z,1030.11
2019-02-14T09:07:32.444Z,1030.09
2019-02-14T09:08:32.462Z,1030.10
2019-02-14T09:09:32.479Z,1030.11
2019-02-14T09:10:32.498Z,1030.13
2019-02-14T09:11:32.513Z,1030.14
2019-02-14T09:12:32.533Z,1030.14
2019-02-14T09:13:32.551Z,1030.21
2019-02-14T09:14:32.566Z,1030.22
2019-02-14T09:15:32.588Z,1030.24
2019-02-14T09:16:32.606Z,1030.20
2019-02-14T09:17:32.622Z,1030.25
2019-02-14T09:18:32.638Z,1030.26
2019-02-14T09:19:32.657Z,1030.23
2019-02-14T09:20:32.679Z,1030.21
2019-02-14T09:21:32.693Z,1030.19
2019-02-14T09:22:32.709Z,1030.18
2019-02-14T09:23:32.727Z,1030.15
2019-02-14T09:24:32.746Z,1030.16
2019-02-14T09:25:32.764Z,1030.17
2019-02-14T09:26:32.784Z,1030.17
2019-02-14T09:27:32.801Z,1030.15
2019-02-14T09:28:32.818Z,1030.11
2019-02-14T09:29:32.837Z,1030.18
2019-02-14T09:30:32.856Z,1030.13
2019-02-14T09:31:32.874Z,1030.15
2019-02-14T09:32:32.892Z,1030.11
2019-02-14T09:33:32.909Z,1030.13
2019-02-14T09:34:32.927Z,1030.11
2019-02-14T09:35:32.943Z,1030.13
2019-02-14T09:36:34.370Z,1030.15
2019-02-14T09:37:32.981Z,1030.16
2019-02-14T09:38:32.998Z,1030.22
2019-02-14T09:39:40.622Z,1030.22
2019-02-14T09:40:33.036Z,1030.26
2019-02-14T09:41:33.052Z,1030.29
2019-02-14T09:42:33.085Z,1030.28
2019-02-14T09:43:33.090Z,1030.34
2019-02-14T09:44:33.106Z,1030.35
2019-02-14T09:45:33.157Z,1030.34
2019-02-14T09:46:33.207Z,1030.38
2019-02-14T09:47:33.207Z,1030.36
2019-02-14T09:48:33.228Z,1030.39
2019-02-14T09:49:33.283Z,1030.37
2019-02-14T09:50:33.280Z,1030.42
2019-02-14T09:51:33.278Z,1030.40
2019-02-14T09:52:33.266Z,1030.42
2019-02-14T09:53:33.282Z,1030.47
2019-02-14T09:54:33.287Z,1030.52
2019-02-14T09:55:33.306Z,1030.56
2019-02-14T09:56:33.330Z,1030.60
2019-02-14T09:57:33.342Z,1030.66
2019-02-14T09:58:33.360Z,1030.71
2019-02-14T09:59:33.377Z,1030.71
2019-02-14T10:00:33.400Z,1030.69
2019-02-14T10:01:33.414Z,1030.70
2019-02-14T10:02:33.431Z,1030.60
2019-02-14T10:03:33.451Z,1030.55
2019-02-14T10:04:33.473Z,1030.47
2019-02-14T10:05:33.495Z,1030.37
2019-02-14T10:06:36.679Z,1030.29
2019-02-14T10:07:33.522Z,1030.24
2019-02-14T10:08:33.542Z,1030.15
2019-02-14T10:09:33.561Z,1030.08
2019-02-14T10:10:33.575Z,1030.10
2019-02-14T10:11:33.591Z,1030.16
2019-02-14T10:12:33.612Z,1030.19
2019-02-14T10:13:33.631Z,1030.23
2019-02-14T10:14:33.648Z,1030.24
2019-02-14T10:15:33.666Z,1030.25
2019-02-14T10:16:33.687Z,1030.24
2019-02-14T10:17:33.703Z,1030.20
2019-02-14T10:18:33.717Z,1030.25
2019-02-14T10:19:33.740Z,1030.15
2019-02-14T10:20:33.832Z,1030.21
2019-02-14T10:21:33.775Z,1030.16
2019-02-14T10:22:33.790Z,1030.15
2019-02-14T10:23:33.811Z,1030.14
2019-02-14T10:24:33.829Z,1030.18
2019-02-14T10:25:33.844Z,1030.16
2019-02-14T10:26:33.865Z,1030.18
2019-02-14T10:27:33.881Z,1030.17
2019-02-14T10:28:33.901Z,1030.15
2019-02-14T10:29:33.915Z,1030.18
2019-02-14T10:30:33.933Z,1030.19
2019-02-14T10:31:33.953Z,1030.26
2019-02-14T10:32:33.969Z,1030.26
2019-02-14T10:33:33.988Z,1030.18
2019-02-14T10:34:34.011Z,1030.25
2019-02-14T10:35:34.026Z,1030.25
2019-02-14T10:36:34.040Z,1030.14
2019-02-14T10:37:34.061Z,1030.15
2019-02-14T10:38:34.080Z,1030.12
2019-02-14T10:39:34.095Z,1030.21
2019-02-14T10:40:34.114Z,1030.24
2019-02-14T10:41:34.133Z,1030.23
2019-02-14T10:42:34.150Z,1030.22
2019-02-14T10:43:34.167Z,1030.20
2019-02-14T10:44:34.184Z,1030.20
2019-02-14T10:45:34.206Z,1030.26
2019-02-14T10:46:35.662Z,1030.23
2019-02-14T10:47:34.244Z,1030.29
2019-02-14T10:48:34.260Z,1030.36
2019-02-14T10:49:34.277Z,1030.33
2019-02-14T10:50:34.299Z,1030.32
2019-02-14T10:51:34.314Z,1030.33
2019-02-14T10:52:34.333Z,1030.26
2019-02-14T10:53:34.350Z,1030.22
2019-02-14T10:54:34.370Z,1030.28
2019-02-14T10:55:34.388Z,1030.26
2019-02-14T10:56:34.406Z,1030.23
2019-02-14T10:57:34.490Z,1030.20
2019-02-14T10:58:34.442Z,1030.17
2019-02-14T10:59:34.459Z,1030.18
2019-02-14T11:00:34.481Z,1030.20
2019-02-14T11:01:34.495Z,1030.16
2019-02-14T11:02:34.515Z,1030.17
2019-02-14T11:03:34.529Z,1030.13
2019-02-14T11:04:34.555Z,1030.07
2019-02-14T11:05:35.592Z,1030.04
2019-02-14T11:06:34.585Z,1030.04
2019-02-14T11:07:34.604Z,1030.10
2019-02-14T11:08:34.622Z,1030.08
2019-02-14T11:09:34.643Z,1030.06
2019-02-14T11:10:34.656Z,1030.03
2019-02-14T11:11:34.676Z,1030.00
2019-02-14T11:12:34.695Z,1029.98
2019-02-14T11:13:34.711Z,1029.99
2019-02-14T11:14:34.737Z,1029.94
2019-02-14T11:15:34.745Z,1029.92
2019-02-14T11:16:34.766Z,1029.86
2019-02-14T11:17:34.785Z,1029.81
2019-02-14T11:18:43.690Z,1029.79
2019-02-14T11:19:34.827Z,1029.79
2019-02-14T11:20:34.834Z,1029.83
2019-02-14T11:21:34.854Z,1029.75
2019-02-14T11:22:34.871Z,1029.77
2019-02-14T11:23:34.892Z,1029.84
2019-02-14T11:24:34.908Z,1029.82
2019-02-14T11:25:34.929Z,1029.83
2019-02-14T11:26:34.943Z,1029.88
2019-02-14T11:27:34.959Z,1029.92
2019-02-14T11:28:34.980Z,1029.97
2019-02-14T11:29:35.012Z,1030.00
2019-02-14T11:30:35.089Z,1029.94
2019-02-14T11:31:35.084Z,1029.97
2019-02-14T11:32:35.091Z,1030.00
2019-02-14T11:33:35.146Z,1029.96
2019-02-14T11:34:35.146Z,1029.95
2019-02-14T11:35:35.155Z,1029.94
2019-02-14T11:36:35.147Z,1030.00
2019-02-14T11:37:35.137Z,1029.92
2019-02-14T11:38:40.624Z,1029.93
2019-02-14T11:39:35.171Z,1029.93
2019-02-14T11:40:35.192Z,1029.90
2019-02-14T11:41:35.207Z,1029.91
2019-02-14T11:42:35.226Z,1029.85
2019-02-14T11:43:35.239Z,1029.92
2019-02-14T11:44:39.751Z,1029.87
2019-02-14T11:45:35.275Z,1029.89
2019-02-14T11:46:35.296Z,1029.86
2019-02-14T11:47:35.311Z,1029.86
2019-02-14T11:48:35.327Z,1029.86
2019-02-14T11:49:35.350Z,1029.86
2019-02-14T11:50:35.366Z,1029.87
2019-02-14T11:51:35.380Z,1029.84
2019-02-14T11:52:35.397Z,1029.85
2019-02-14T11:53:35.418Z,1029.87
2019-02-14T11:54:35.433Z,1029.84
2019-02-14T11:55:35.450Z,1029.87
2019-02-14T11:56:35.468Z,1029.84
2019-02-14T11:57:35.485Z,1029.79
2019-02-14T11:58:35.505Z,1029.82
2019-02-14T11:59:35.523Z,1029.80
2019-02-14T12:00:35.535Z,1029.76
2019-02-14T12:01:35.557Z,1029.76
2019-02-14T12:02:35.571Z,1029.76
2019-02-14T12:03:35.591Z,1029.75
2019-02-14T12:04:35.612Z,1029.70
2019-02-14T12:05:35.624Z,1029.74